North Boulder Creek (79, 238, 626) Station Data

Red Flag Warning: No
Fire Weather Zone: 258
SDGE Region: Mountain Empire
Lat/Lon: 32.98/-116.663

Observations

Time Wind Speed/Gust Temp(F) RH Fuel Moist Fuel Temp(F) Dewpt(F) Tmax(F) Tmin(F) Accum Precip 10-min Precip SL Press(mb)
2/27 11:40pm 294 10 G 18 44° 100% - - 44° 47.2° 41.1° - - -
2/27 11:20pm 280 11 G 17 45° 100% - - 45° 47.2° 41.1° - - -
2/27 11:10pm 246 12 G 25 45° 100% - - 45° 47.2° 41.1° - - -
2/27 11:00pm 212 13 G 24 45° 100% - - 45° 47.2° 41.1° - - -
2/27 10:50pm 222 13 G 22 45° 100% - - 45° 47.2° 41.1° - - -
2/27 10:40pm 234 16 G 27 44° 100% - - 44° 47.2° 41.1° - - -
2/27 10:30pm 238 19 G 31 45° 100% - - 45° 47.2° 41.1° - - -
2/27 10:20pm 237 20 G 32 44° 100% - - 44° 47.2° 41.1° - - -
2/27 10:10pm 241 16 G 36 45° 100% - - 45° 47.2° 41.1° - - -
2/27 10:00pm 235 18 G 29 45° 100% - - 45° 47.2° 41.1° - - -
2/27 9:50pm 235 14 G 27 45° 100% - - 45° 47.2° 41.1° - - -
2/27 9:40pm 215 12 G 21 45° 100% - - 45° 47.2° 41.1° - - -
2/27 9:30pm 205 15 G 23 45° 100% - - 45° 47.2° 41.1° - - -
2/27 9:20pm 197 10 G 20 45° 100% - - 45° 47.2° 41.1° - - -
2/27 9:10pm 222 9 G 16 45° 100% - - 45° 47.2° 41.1° - - -
2/27 9:00pm 231 12 G 18 45° 100% - - 45° 47.2° 41.1° - - -
2/27 8:50pm 230 14 G 25 45° 100% - - 45° 47.2° 41.1° - - -
2/27 8:40pm 204 11 G 20 45° 100% - - 45° 47.2° 41.1° - - -
2/27 8:30pm 201 13 G 22 45° 100% - - 45° 47.2° 41.1° - - -
2/27 8:20pm 184 14 G 22 45° 100% - - 45° 47.2° 41.1° - - -
2/27 8:10pm 170 14 G 21 45° 100% - - 45° 47.2° 41.1° - - -
2/27 8:00pm 162 16 G 24 45° 100% - - 45° 47.2° 41.1° - - -
2/27 7:50pm 171 12 G 20 45° 100% - - 45° 47.2° 41.1° - - -
2/27 7:40pm 179 12 G 19 45° 100% - - 45° 47.2° 41.1° - - -
2/27 7:20pm 173 13 G 19 45° 100% - - 45° 47.2° 41.1° - - -
2/27 7:00pm 175 13 G 18 45° 100% - - 45° 47.2° 41.1° - - -
2/27 6:50pm 172 14 G 21 45° 100% - - 45° 47.2° 41.1° - - -
2/27 6:40pm 168 14 G 21 45° 100% - - 45° 47.2° 41.1° - - -
2/27 6:30pm 168 14 G 24 45° 100% - - 45° 47.2° 41.1° - - -
2/27 6:20pm 175 13 G 20 45° 100% - - 45° 47.2° 41.1° - - -
2/27 6:10pm 182 14 G 21 45° 100% - - 45° 47.2° 41.1° - - -
2/27 6:00pm 179 16 G 22 45° 100% - - 45° 47.2° 41.1° - - -
2/27 5:40pm 176 14 G 21 45° 100% - - 45° 47.2° 41.1° - - -
2/27 5:30pm 181 12 G 21 45° 100% - - 45° 47.2° 41.1° - - -
2/27 5:20pm 193 13 G 22 45° 100% - - 45° 47.2° 41.1° - - -
2/27 5:10pm 225 9 G 17 45° 100% - - 45° 47.2° 41.1° - - -
2/27 5:00pm 196 10 G 21 45° 100% - - 45° 47.2° 41.1° - - -
2/27 4:50pm 183 11 G 18 45° 100% - - 45° 47.2° 41.1° - - -
2/27 4:40pm 178 11 G 18 45° 100% - - 45° 47.2° 41.1° - - -
2/27 4:30pm 182 12 G 19 45° 100% - - 45° 47.2° 41.1° - - -
2/27 4:20pm 180 14 G 22 45° 100% - - 45° 47.2° 41.1° - - -
2/27 4:10pm 174 14 G 22 45° 100% - - 45° 47.2° 41.1° - - -
2/27 4:00pm 180 15 G 23 45° 100% - - 45° 47.2° 41.1° - - -
2/27 3:50pm 176 15 G 28 45° 100% - - 45° 47.2° 41.1° - - -
2/27 3:40pm 186 11 G 18 46° 100% - - 46° 47.2° 41.1° - - -
2/27 3:30pm 197 10 G 20 46° 100% - - 46° 47.2° 41.1° - - -
2/27 3:20pm 182 16 G 25 46° 100% - - 46° 47.2° 41.1° - - -
2/27 3:10pm 199 15 G 29 45° 100% - - 45° 47.2° 41.1° - - -
2/27 3:00pm 196 14 G 26 45° 100% - - 45° 47.2° 41.1° - - -
2/27 2:50pm 197 14 G 23 46° 100% - - 46° 47.2° 41.1° - - -
2/27 2:40pm 200 15 G 24 46° 100% - - 46° 47.2° 41.1° - - -
2/27 2:30pm 207 14 G 26 46° 100% - - 46° 47.2° 41.1° - - -
2/27 2:20pm 218 14 G 25 46° 100% - - 46° 47.2° 41.1° - - -
2/27 2:10pm 206 16 G 26 46° 100% - - 46° 47.2° 41.1° - - -
2/27 2:00pm 206 14 G 28 46° 100% - - 46° 47.2° 41.1° - - -
2/27 1:50pm 219 17 G 29 46° 100% - - 46° 47.2° 41.1° - - -
2/27 1:40pm 208 18 G 32 46° 100% - - 46° 47.2° 41.1° - - -
2/27 1:30pm 224 11 G 23 46° 100% - - 46° 47.2° 41.1° - - -
2/27 1:20pm 207 12 G 25 46° 100% - - 46° 47.2° 41.1° - - -
2/27 1:10pm 205 15 G 25 46° 100% - - 46° 47.2° 41.1° - - -
2/27 1:00pm 197 12 G 21 46° 100% - - 46° 47.2° 41.1° - - -
2/27 12:50pm 199 12 G 28 46° 100% - - 46° 47.2° 41.1° - - -
2/27 12:40pm 184 12 G 26 46° 100% - - 46° 47.2° 41.1° - - -
2/27 12:30pm 172 13 G 23 46° 100% - - 46° 47.2° 41.1° - - -
2/27 12:20pm 181 12 G 20 46° 100% - - 46° 47.2° 41.1° - - -
2/27 12:10pm 174 12 G 19 46° 100% - - 46° 47.2° 41.1° - - -
2/27 12:00pm 167 14 G 23 46° 100% - - 46° 47.2° 41.1° - - -
2/27 11:50am 191 10 G 16 46° 100% - - 46° 47.2° 41.1° - - -
2/27 11:40am 215 11 G 22 46° 100% - - 46° 47.2° 41.1° - - -
2/27 11:30am 233 12 G 24 46° 100% - - 46° 47.2° 41.1° - - -
2/27 11:20am 239 12 G 18 46° 100% - - 46° 47.2° 41.1° - - -
2/27 11:10am 226 14 G 24 46° 100% - - 46° 47.2° 41.1° - - -
2/27 11:00am 236 15 G 28 46° 100% - - 46° 47.2° 41.1° - - -
2/27 10:50am 237 12 G 21 46° 100% - - 46° 47.2° 41.1° - - -
2/27 10:40am 231 11 G 17 46° 100% - - 46° 47.2° 41.1° - - -
2/27 10:30am 215 12 G 24 46° 100% - - 46° 47.2° 41.1° - - -
2/27 10:20am 225 11 G 20 47° 100% - - 47° 47.2° 41.1° - - -
2/27 10:10am 237 14 G 28 47° 100% - - 47° 47.2° 41.1° - - -
2/27 10:00am 228 12 G 21 47° 100% - - 47° 47.2° 41.1° - - -
2/27 9:50am 232 9 G 20 47° 100% - - 47° 47.2° 41.1° - - -
2/27 9:40am 185 9 G 17 47° 100% - - 47° 47.2° 41.1° - - -
2/27 9:30am 185 10 G 17 47° 100% - - 47° 47.2° 41.1° - - -
2/27 9:20am 181 11 G 18 47° 100% - - 47° 47.2° 41.1° - - -
2/27 9:10am 186 13 G 20 47° 100% - - 47° 47.2° 41.1° - - -
2/27 9:00am 181 11 G 20 47° 100% - - 47° 47.2° 41.1° - - -
2/27 8:50am 186 13 G 22 46° 100% - - 46° 47.2° 41.1° - - -
2/27 8:40am 183 14 G 23 46° 100% - - 46° 47.2° 41.1° - - -
2/27 8:30am 185 8 G 19 47° 100% - - 47° 47.2° 41.1° - - -
2/27 8:20am 188 8 G 14 46° 100% - - 46° 47.2° 41.1° - - -
2/27 8:10am 195 10 G 18 46° 100% - - 46° 47.2° 41.1° - - -
2/27 8:00am 203 13 G 24 46° 100% - - 46° 47.2° 41.1° - - -
2/27 7:50am 231 9 G 15 47° 100% - - 47° 47.2° 41.1° - - -
2/27 7:40am 215 8 G 16 47° 100% - - 47° 47.2° 41.1° - - -
2/27 7:30am 175 8 G 12 47° 100% - - 47° 47.2° 41.1° - - -
2/27 7:20am 176 8 G 13 47° 100% - - 47° 47.2° 41.1° - - -
2/27 7:10am 186 7 G 15 47° 100% - - 47° 47° 41.1° - - -
2/27 7:00am 174 10 G 17 46° 100% - - 46° 47° 41.1° - - -
2/27 6:50am 173 10 G 18 46° 100% - - 46° 46.8° 41.1° - - -
2/27 6:40am 172 9 G 15 46° 100% - - 46° 46.8° 41.1° - - -
2/27 6:30am 177 9 G 16 46° 100% - - 46° 46.8° 41.1° - - -
2/27 6:20am 173 10 G 15 46° 100% - - 46° 46.8° 41.1° - - -
2/27 6:10am 185 11 G 16 46° 100% - - 46° 46.8° 41.1° - - -
2/27 6:00am 183 13 G 21 46° 100% - - 46° 46.8° 41.1° - - -
2/27 5:50am 178 12 G 20 46° 100% - - 46° 46.7° 41.1° - - -
2/27 5:40am 177 10 G 17 46° 100% - - 46° 46.5° 41.1° - - -
2/27 5:30am 172 11 G 18 46° 100% - - 46° 46.5° 41.1° - - -
2/27 5:20am 171 12 G 20 46° 100% - - 46° 46.3° 41.1° - - -
2/27 5:10am 168 13 G 20 46° 100% - - 46° 46.3° 41.1° - - -
2/27 5:00am 166 13 G 20 46° 100% - - 46° 46.3° 41.1° - - -
2/27 4:50am 166 13 G 18 46° 100% - - 46° 46.2° 41.1° - - -
2/27 4:40am 166 13 G 22 46° 100% - - 46° 46.2° 41.1° - - -
2/27 4:30am 164 17 G 25 46° 100% - - 46° 46.1° 41.1° - - -
2/27 4:20am 163 15 G 22 45° 100% - - 45° 46° 41.1° - - -
2/27 4:10am 159 13 G 18 45° 100% - - 45° 45.8° 41.1° - - -
2/27 4:00am 162 10 G 14 45° 100% - - 45° 45.8° 41.1° - - -
2/27 3:50am 170 9 G 13 45° 100% - - 45° 45.7° 41.1° - - -
2/27 3:40am 176 9 G 14 45° 100% - - 45° 45.5° 41.1° - - -
2/27 3:30am 177 10 G 14 45° 100% - - 45° 45.4° 41.1° - - -
2/27 3:20am 182 10 G 15 45° 100% - - 45° 45.3° 41.1° - - -
2/27 3:10am 176 11 G 18 45° 100% - - 45° 45.2° 41.1° - - -
2/27 3:00am 164 11 G 15 44° 100% - - 44° 45° 41.1° - - -
2/27 2:50am 169 12 G 16 44° 100% - - 44° 44.8° 41.1° - - -
2/27 2:40am 163 11 G 15 44° 100% - - 44° 44.6° 41.1° - - -
2/27 2:30am 163 9 G 12 44° 100% - - 44° 44.5° 41.1° - - -
2/27 2:20am 174 7 G 11 44° 100% - - 44° 44.4° 41.1° - - -
2/27 2:10am 181 7 G 12 44° 100% - - 44° 44.3° 41.1° - - -
2/27 2:00am 184 8 G 13 44° 100% - - 44° 44.3° 41.1° - - -
2/27 1:50am 181 10 G 14 44° 100% - - 44° 44.1° 41.1° - - -
2/27 1:40am 176 8 G 12 43° 100% - - 43° 44° 41.1° - - -
2/27 1:30am 170 8 G 12 43° 100% - - 43° 43.8° 41.1° - - -
2/27 1:20am 171 7 G 11 43° 100% - - 43° 43.6° 41.1° - - -
2/27 1:10am 167 8 G 12 43° 100% - - 43° 43.5° 41.1° - - -
2/27 1:00am 167 8 G 12 43° 100% - - 43° 43.3° 41.1° - - -
2/27 12:50am 178 7 G 10 42° 100% - - 42° 43.1° 41.1° - - -
2/27 12:40am 165 7 G 9 42° 100% - - 42° 42.6° 41.1° - - -
2/27 12:30am 178 6 G 8 42° 100% - - 42° 42.6° 41.1° - - -
2/27 12:20am 175 8 G 12 42° 100% - - 42° 42.6° 41.1° - - -
2/27 12:10am 172 8 G 14 42° 100% - - 42° 42.4° 41.1° - - -
2/27 12:00am 159 7 G 10 41° 100% - - 41° 45.7° 36.3° - - -
2/26 11:50pm 141 8 G 12 41° 100% - - 41° 45.7° 36.3° - - -
2/26 11:40pm 158 6 G 9 40° 100% - - 40° 45.7° 36.3° - - -
2/26 11:30pm 172 7 G 10 41° 100% - - 41° 45.7° 36.3° - - -
2/26 11:20pm 159 6 G 10 41° 98% - - 41° 45.7° 36.3° - - -
2/26 11:10pm 161 6 G 11 40° 96% - - 39° 45.7° 36.3° - - -
2/26 11:00pm 157 7 G 10 40° 99% - - 39° 45.7° 36.3° - - -
2/26 10:50pm 153 6 G 8 39° 100% - - 39° 45.7° 36.3° - - -
2/26 10:40pm 148 8 G 12 39° 100% - - 39° 45.7° 36.3° - - -
2/26 10:30pm 153 7 G 11 39° 100% - - 39° 45.7° 36.3° - - -
2/26 10:20pm 151 6 G 11 39° 100% - - 39° 45.7° 36.3° - - -
2/26 10:10pm 158 5 G 6 39° 100% - - 39° 45.7° 36.3° - - -
2/26 10:00pm 156 6 G 9 39° 100% - - 39° 45.7° 36.3° - - -
2/26 9:50pm 156 7 G 10 39° 100% - - 39° 45.7° 36.3° - - -
2/26 9:40pm 167 8 G 12 39° 100% - - 39° 45.7° 36.3° - - -
2/26 9:30pm 183 9 G 15 39° 100% - - 39° 45.7° 36.3° - - -
2/26 9:20pm 185 8 G 13 39° 100% - - 39° 45.7° 36.3° - - -
2/26 9:10pm 190 9 G 13 39° 100% - - 39° 45.7° 36.3° - - -
2/26 9:00pm 202 8 G 13 39° 100% - - 39° 45.7° 36.3° - - -
2/26 8:50pm 203 9 G 14 40° 100% - - 40° 45.7° 36.3° - - -
2/26 8:40pm 212 10 G 18 40° 100% - - 40° 45.7° 36.3° - - -
2/26 8:30pm 217 10 G 15 40° 100% - - 40° 45.7° 36.3° - - -
2/26 8:20pm 224 10 G 17 40° 100% - - 40° 45.7° 36.3° - - -
2/26 8:10pm 226 10 G 17 40° 100% - - 40° 45.7° 36.3° - - -
2/26 8:00pm 233 11 G 21 40° 100% - - 40° 45.7° 36.3° - - -
2/26 7:50pm 232 11 G 17 40° 100% - - 40° 45.7° 36.3° - - -
2/26 7:40pm 237 10 G 16 40° 100% - - 40° 45.7° 36.3° - - -
2/26 7:30pm 233 9 G 14 40° 100% - - 40° 45.7° 36.3° - - -
2/26 7:20pm 237 11 G 24 40° 100% - - 40° 45.7° 36.3° - - -
2/26 7:10pm 244 11 G 17 40° 100% - - 40° 45.7° 36.3° - - -
2/26 7:00pm 241 11 G 16 40° 100% - - 40° 45.7° 36.3° - - -
2/26 6:50pm 261 8 G 12 40° 100% - - 40° 45.7° 36.3° - - -
2/26 6:40pm 242 9 G 15 41° 100% - - 41° 45.7° 36.3° - - -
2/26 6:30pm 246 11 G 19 41° 100% - - 41° 45.7° 36.3° - - -
2/26 6:20pm 248 7 G 18 41° 100% - - 41° 45.7° 36.3° - - -
2/26 6:10pm 241 9 G 14 41° 100% - - 41° 45.7° 36.3° - - -
2/26 6:00pm 246 8 G 15 41° 100% - - 41° 45.7° 36.3° - - -
2/26 5:50pm 250 7 G 15 41° 100% - - 41° 45.7° 36.3° - - -
2/26 5:40pm 249 9 G 17 41° 100% - - 41° 45.7° 36.3° - - -
2/26 5:30pm 251 10 G 16 42° 100% - - 42° 45.7° 36.3° - - -
2/26 5:20pm 251 9 G 15 42° 100% - - 42° 45.7° 36.3° - - -
2/26 5:10pm 252 8 G 16 42° 100% - - 42° 45.7° 36.3° - - -
2/26 5:00pm 229 10 G 18 42° 100% - - 42° 45.7° 36.3° - - -